createdAt,value
2018-07-05T00:01:24.564Z,1.30
2018-07-05T00:03:58.232Z,1.40
2018-07-05T00:06:37.989Z,1.90
2018-07-05T00:09:18.439Z,1.17
2018-07-05T00:11:58.110Z,1.73
2018-07-05T00:14:38.014Z,1.63
2018-07-05T00:17:17.771Z,1.27
2018-07-05T00:19:58.556Z,1.10
2018-07-05T00:22:41.999Z,1.67
2018-07-05T00:25:21.830Z,2.03
2018-07-05T00:28:01.387Z,1.47
2018-07-05T00:30:34.912Z,1.80
2018-07-05T00:33:08.554Z,2.50
2018-07-05T00:35:42.118Z,1.40
2018-07-05T00:38:15.774Z,1.50
2018-07-05T00:40:55.434Z,1.50
2018-07-05T00:43:35.059Z,2.77
2018-07-05T00:46:15.423Z,1.83
2018-07-05T00:48:56.505Z,1.63
2018-07-05T00:51:36.204Z,2.50
2018-07-05T00:54:16.039Z,1.70
2018-07-05T00:56:55.701Z,2.43
2018-07-05T00:59:35.374Z,2.37
2018-07-05T01:02:16.081Z,2.73
2018-07-05T01:04:55.583Z,2.07
2018-07-05T01:07:35.242Z,1.63
2018-07-05T01:10:14.976Z,1.70
2018-07-05T01:12:54.791Z,2.20
2018-07-05T01:15:34.577Z,2.50
2018-07-05T01:18:14.173Z,2.50
2018-07-05T01:20:53.864Z,1.87
2018-07-05T01:23:33.439Z,1.70
2018-07-05T01:26:13.091Z,2.00
2018-07-05T01:28:46.643Z,2.00
2018-07-05T01:31:26.307Z,2.23
2018-07-05T01:34:06.005Z,2.10
2018-07-05T01:36:45.735Z,1.47
2018-07-05T01:39:25.588Z,3.70
2018-07-05T01:42:05.108Z,2.20
2018-07-05T01:44:44.783Z,1.20
2018-07-05T01:47:24.446Z,2.87
2018-07-05T01:50:04.068Z,3.13
2018-07-05T01:52:43.753Z,2.20
2018-07-05T01:55:23.354Z,2.07
2018-07-05T01:58:03.065Z,1.60
2018-07-05T02:00:42.932Z,1.97
2018-07-05T02:03:22.709Z,2.53
2018-07-05T02:06:02.407Z,2.20
2018-07-05T02:08:42.021Z,1.83
2018-07-05T02:11:21.831Z,1.90
2018-07-05T02:14:01.492Z,2.60
2018-07-05T02:16:41.051Z,2.10
2018-07-05T02:19:20.715Z,2.17
2018-07-05T02:22:00.352Z,2.10
2018-07-05T02:24:40.053Z,2.17
2018-07-05T02:27:19.646Z,2.27
2018-07-05T02:29:59.236Z,1.37
2018-07-05T02:32:39.413Z,2.27
2018-07-05T03:01:29.201Z,2.00
2018-07-05T03:04:02.828Z,3.20
2018-07-05T03:06:36.402Z,2.03
2018-07-05T03:09:10.059Z,3.10
2018-07-05T03:11:43.885Z,2.30
2018-07-05T03:14:17.618Z,2.83
2018-07-05T03:16:51.457Z,2.53
2018-07-05T03:19:25.112Z,3.40
2018-07-05T03:21:58.858Z,2.87
2018-07-05T03:24:32.345Z,3.23
2018-07-05T03:27:05.842Z,3.27
2018-07-05T03:29:39.678Z,4.20
2018-07-05T03:32:13.459Z,1.90
2018-07-05T03:34:47.187Z,4.83
2018-07-05T03:37:20.845Z,2.23
2018-07-05T03:39:54.614Z,2.37
2018-07-05T03:42:28.366Z,1.57
2018-07-05T03:45:01.950Z,4.40
2018-07-05T03:47:41.583Z,4.90
2018-07-05T03:50:21.213Z,4.83
2018-07-05T03:53:00.901Z,3.67
2018-07-05T03:55:40.534Z,3.90
2018-07-05T03:58:20.247Z,3.23
2018-07-05T04:00:59.908Z,4.13
2018-07-05T04:03:39.547Z,3.20
2018-07-05T04:06:19.227Z,2.50
2018-07-05T04:08:58.814Z,2.63
2018-07-05T04:11:38.598Z,4.17
2018-07-05T04:14:18.441Z,4.43
2018-07-05T04:16:58.242Z,3.40
2018-07-05T04:19:31.989Z,5.10
2018-07-05T04:22:11.594Z,3.57
2018-07-05T04:24:51.124Z,4.40
2018-07-05T04:27:30.845Z,1.83
2018-07-05T04:30:11.306Z,4.13
2018-07-05T04:32:51.041Z,4.20
2018-07-05T04:35:24.780Z,4.57
2018-07-05T04:38:04.323Z,5.07
2018-07-05T04:40:44.316Z,3.97
2018-07-05T04:43:23.987Z,3.73
2018-07-05T04:46:03.636Z,2.30
2018-07-05T04:48:43.371Z,3.03
2018-07-05T04:51:23.158Z,3.73
2018-07-05T04:54:02.809Z,2.03
2018-07-05T04:56:42.418Z,3.30
2018-07-05T04:59:22.107Z,3.20
2018-07-05T05:02:01.764Z,2.50
2018-07-05T05:04:41.437Z,4.23
2018-07-05T05:07:21.309Z,3.40
2018-07-05T05:10:00.983Z,4.33
2018-07-05T05:12:40.714Z,5.00
2018-07-05T05:15:20.334Z,3.60
2018-07-05T05:18:00.076Z,4.17
2018-07-05T05:20:39.746Z,3.63
2018-07-05T05:23:19.320Z,3.70
2018-07-05T05:25:58.784Z,2.80
2018-07-05T05:28:38.501Z,3.30
2018-07-05T05:31:18.403Z,2.43
2018-07-05T05:33:58.135Z,2.67
2018-07-05T05:36:38.171Z,2.70
2018-07-05T05:39:17.768Z,5.17
2018-07-05T05:41:57.525Z,4.30
2018-07-05T05:44:37.299Z,2.23
2018-07-05T05:47:17.402Z,4.70
2018-07-05T05:49:57.236Z,3.07
2018-07-05T05:52:36.976Z,2.03
2018-07-05T05:55:16.535Z,1.40
2018-07-05T05:57:56.104Z,1.30
2018-07-05T06:00:35.640Z,1.83
2018-07-05T06:03:15.283Z,2.00
2018-07-05T06:05:55.006Z,1.80
2018-07-05T06:08:34.654Z,1.80
2018-07-05T06:11:14.295Z,1.33
2018-07-05T06:13:54.318Z,2.23
2018-07-05T06:16:34.188Z,2.40
2018-07-05T06:19:13.716Z,2.30
2018-07-05T06:21:53.455Z,1.43
2018-07-05T06:24:33.358Z,1.87
2018-07-05T06:27:13.046Z,1.90
2018-07-05T06:29:52.688Z,1.33
2018-07-05T06:32:32.352Z,1.63
2018-07-05T06:35:12.121Z,1.47
2018-07-05T06:37:51.732Z,1.73
2018-07-05T06:40:31.435Z,1.70
2018-07-05T06:43:11.107Z,2.10
2018-07-05T06:45:50.922Z,1.73
2018-07-05T06:48:30.658Z,1.63
2018-07-05T06:51:10.223Z,1.97
2018-07-05T06:53:49.880Z,1.53
2018-07-05T06:56:29.556Z,1.60
2018-07-05T06:59:09.403Z,1.60
2018-07-05T07:01:49.002Z,2.00
2018-07-05T07:04:28.898Z,1.80
2018-07-05T07:07:08.757Z,1.90
2018-07-05T07:09:48.490Z,1.50
2018-07-05T07:12:28.132Z,2.00
2018-07-05T07:15:07.822Z,1.60
2018-07-05T07:17:47.490Z,1.60
2018-07-05T07:20:27.182Z,1.60
2018-07-05T07:23:06.883Z,1.43
2018-07-05T07:25:46.553Z,1.80
2018-07-05T07:28:26.377Z,1.40
2018-07-05T07:31:06.220Z,1.23
2018-07-05T07:33:45.980Z,1.80
2018-07-05T07:36:25.949Z,1.37
2018-07-05T07:39:05.781Z,2.03
2018-07-05T07:41:44.995Z,2.00
2018-07-05T07:44:12.303Z,1.50
2018-07-05T07:46:39.633Z,1.80
2018-07-05T07:49:07.202Z,1.50
2018-07-05T07:51:34.443Z,1.80
2018-07-05T07:54:01.715Z,1.70
2018-07-05T07:56:28.994Z,1.93
2018-07-05T07:58:56.261Z,1.73
2018-07-05T08:01:23.553Z,1.50
2018-07-05T08:03:50.827Z,1.40
2018-07-05T08:06:18.106Z,1.60
2018-07-05T08:08:45.465Z,1.60
2018-07-05T08:11:12.771Z,1.67
2018-07-05T08:13:40.040Z,1.70
2018-07-05T08:16:07.307Z,2.10
2018-07-05T08:18:34.586Z,1.87
2018-07-05T08:21:01.880Z,1.87
2018-07-05T08:23:29.155Z,1.70
2018-07-05T08:25:56.431Z,1.63
2018-07-05T08:28:23.703Z,1.70
2018-07-05T08:30:50.955Z,1.70
2018-07-05T08:33:18.211Z,1.40
2018-07-05T08:35:45.550Z,1.80
2018-07-05T08:38:12.835Z,1.50
2018-07-05T08:40:40.115Z,1.50
2018-07-05T08:43:07.371Z,1.73
2018-07-05T08:45:34.663Z,1.40
2018-07-05T08:48:01.947Z,1.40
2018-07-05T08:50:29.250Z,1.50
2018-07-05T08:52:56.530Z,1.20
2018-07-05T08:55:23.871Z,1.70
2018-07-05T08:57:51.186Z,1.43
2018-07-05T09:00:18.479Z,1.30
2018-07-05T09:02:46.041Z,1.40
2018-07-05T09:05:13.355Z,1.53
2018-07-05T09:07:40.642Z,1.30
2018-07-05T09:10:07.899Z,1.20
2018-07-05T09:12:35.206Z,1.20
2018-07-05T09:15:02.447Z,1.60
2018-07-05T09:17:29.800Z,1.30
2018-07-05T09:19:57.043Z,1.50
2018-07-05T09:22:24.337Z,1.43
2018-07-05T09:24:51.641Z,1.40
2018-07-05T09:27:18.956Z,1.07
2018-07-05T09:29:46.351Z,1.20
2018-07-05T09:32:13.634Z,1.13
2018-07-05T09:34:40.985Z,1.23
2018-07-05T09:37:08.291Z,1.10
2018-07-05T09:39:35.552Z,1.40
2018-07-05T09:42:02.814Z,0.90
2018-07-05T09:44:30.117Z,1.10
2018-07-05T09:46:57.426Z,0.90
2018-07-05T09:49:24.714Z,1.50
2018-07-05T09:51:52.051Z,1.37
2018-07-05T09:54:19.335Z,1.63
2018-07-05T09:56:46.616Z,1.90
2018-07-05T09:59:13.975Z,1.50
2018-07-05T10:01:41.231Z,2.00
2018-07-05T10:04:09.162Z,2.10
2018-07-05T10:06:36.421Z,1.70
2018-07-05T10:09:04.728Z,3.30
2018-07-05T10:11:32.051Z,2.30
2018-07-05T10:13:59.371Z,2.93
2018-07-05T10:16:26.630Z,2.80
2018-07-05T10:18:53.941Z,3.77
2018-07-05T10:21:21.320Z,3.40
2018-07-05T10:23:48.699Z,3.47
2018-07-05T10:26:15.995Z,2.50
2018-07-05T10:28:55.816Z,2.60
2018-07-05T10:31:35.732Z,3.57
2018-07-05T10:34:03.065Z,3.60
2018-07-05T10:36:30.348Z,2.97
2018-07-05T10:38:57.627Z,3.03
2018-07-05T10:41:37.655Z,3.23
2018-07-05T10:44:17.220Z,3.60
2018-07-05T10:46:56.871Z,4.00
2018-07-05T10:49:36.647Z,3.20
2018-07-05T10:52:16.282Z,3.17
2018-07-05T10:54:56.067Z,2.80
2018-07-05T10:57:29.874Z,3.00
2018-07-05T11:00:03.512Z,2.47
2018-07-05T11:02:43.104Z,3.03
2018-07-05T11:05:22.842Z,3.03
2018-07-05T11:08:02.643Z,2.70
2018-07-05T11:10:42.293Z,2.70
2018-07-05T11:13:21.990Z,3.30
2018-07-05T11:16:01.630Z,2.90
2018-07-05T11:18:41.284Z,3.50
2018-07-05T11:21:20.996Z,3.00
2018-07-05T11:24:00.810Z,2.50
2018-07-05T11:26:40.677Z,2.50
2018-07-05T11:29:20.270Z,2.93
2018-07-05T11:31:54.057Z,2.67
2018-07-05T11:34:33.679Z,2.80
2018-07-05T11:37:13.213Z,3.20
2018-07-05T11:39:52.721Z,2.93
2018-07-05T11:42:32.333Z,3.00
2018-07-05T11:45:12.036Z,3.00
2018-07-05T11:47:51.709Z,2.90
2018-07-05T11:50:31.450Z,3.10
2018-07-05T11:53:11.203Z,3.40
2018-07-05T11:55:50.943Z,3.07
2018-07-05T11:58:30.895Z,3.10
2018-07-05T12:01:10.649Z,3.27
2018-07-05T12:03:50.529Z,3.00
2018-07-05T12:06:30.432Z,3.03
2018-07-05T12:09:10.587Z,3.07
2018-07-05T12:11:50.742Z,2.97
2018-07-05T12:14:30.516Z,3.17
2018-07-05T12:17:10.119Z,3.23
2018-07-05T12:19:49.888Z,4.23
2018-07-05T12:22:29.632Z,3.40
2018-07-05T12:25:09.366Z,4.43
2018-07-05T12:27:49.066Z,3.80
2018-07-05T12:30:28.816Z,5.37
2018-07-05T12:33:08.311Z,5.73
2018-07-05T12:35:48.030Z,6.13
2018-07-05T12:38:21.732Z,5.87
2018-07-05T12:41:01.310Z,6.90
2018-07-05T12:43:40.919Z,6.93
2018-07-05T12:46:20.447Z,8.30
2018-07-05T12:49:01.287Z,8.37
2018-07-05T12:51:40.995Z,7.20
2018-07-05T12:54:20.764Z,7.03
2018-07-05T12:57:00.495Z,7.13
2018-07-05T12:59:40.231Z,6.93
2018-07-05T13:02:19.888Z,6.70
2018-07-05T13:04:53.755Z,6.70
2018-07-05T13:07:33.542Z,6.10
2018-07-05T13:10:07.219Z,6.60
2018-07-05T13:12:46.959Z,5.93
2018-07-05T13:15:26.557Z,5.77
2018-07-05T13:18:06.179Z,5.97
2018-07-05T13:20:45.840Z,5.70
2018-07-05T13:23:25.598Z,4.73
2018-07-05T13:26:05.289Z,4.70
2018-07-05T13:28:45.107Z,5.13
2018-07-05T13:31:24.658Z,5.00
2018-07-05T13:34:04.547Z,4.37
2018-07-05T13:36:44.264Z,5.27
2018-07-05T13:39:23.911Z,5.03
2018-07-05T13:42:03.559Z,5.13
2018-07-05T13:44:43.381Z,4.43
2018-07-05T13:47:23.227Z,4.60
2018-07-05T13:50:02.962Z,4.10
2018-07-05T13:52:42.615Z,4.13
2018-07-05T13:55:22.724Z,3.77
2018-07-05T13:58:02.375Z,4.13
2018-07-05T14:00:42.008Z,3.93
2018-07-05T14:03:21.729Z,4.07
2018-07-05T14:06:01.574Z,3.60
2018-07-05T14:08:41.346Z,3.37
2018-07-05T14:11:15.111Z,2.90
2018-07-05T14:13:54.878Z,3.00
2018-07-05T14:16:34.460Z,3.07
2018-07-05T14:19:14.059Z,3.27
2018-07-05T14:21:53.912Z,2.73
2018-07-05T14:24:33.647Z,2.83
2018-07-05T14:27:13.421Z,2.37
2018-07-05T14:29:53.292Z,2.57
2018-07-05T14:32:32.979Z,2.90
2018-07-05T14:35:12.731Z,3.00
2018-07-05T14:37:52.564Z,2.40
2018-07-05T14:40:32.169Z,2.20
2018-07-05T14:43:11.910Z,2.10
2018-07-05T14:45:51.701Z,1.90
2018-07-05T14:48:31.443Z,2.30
2018-07-05T14:51:11.119Z,2.20
2018-07-05T14:53:50.818Z,2.20
2018-07-05T14:56:30.516Z,1.80
2018-07-05T14:59:10.208Z,2.07
2018-07-05T15:01:49.899Z,1.80
2018-07-05T15:04:23.717Z,1.53
2018-07-05T15:07:03.612Z,1.50
2018-07-05T15:09:43.280Z,1.43
2018-07-05T15:12:22.894Z,1.60
2018-07-05T15:15:02.582Z,1.53
2018-07-05T15:17:42.554Z,1.43
2018-07-05T15:20:22.377Z,2.03
2018-07-05T15:23:02.174Z,1.50
2018-07-05T15:25:41.961Z,1.10
2018-07-05T15:28:21.615Z,1.63
2018-07-05T15:31:01.209Z,1.70
2018-07-05T15:33:40.824Z,2.10
2018-07-05T15:36:20.496Z,2.30
2018-07-05T15:39:00.174Z,1.90
2018-07-05T15:41:39.888Z,1.70
2018-07-05T15:44:19.371Z,1.87
2018-07-05T15:46:59.014Z,1.90
2018-07-05T15:49:38.597Z,2.27
2018-07-05T15:52:18.285Z,1.57
2018-07-05T15:54:58.007Z,2.80
2018-07-05T15:57:37.848Z,1.50
2018-07-05T16:00:17.649Z,2.30
2018-07-05T16:02:57.378Z,1.93
2018-07-05T16:05:37.044Z,2.30
2018-07-05T16:08:16.626Z,1.87
2018-07-05T16:10:56.232Z,2.30
2018-07-05T16:13:30.041Z,2.03
2018-07-05T16:16:09.767Z,2.63
2018-07-05T16:18:49.527Z,2.30
2018-07-05T16:21:23.360Z,2.30
2018-07-05T16:24:03.095Z,3.07
2018-07-05T16:26:42.928Z,3.17
2018-07-05T16:29:22.559Z,3.37
2018-07-05T16:32:02.276Z,3.00
2018-07-05T16:34:42.128Z,2.50
2018-07-05T16:37:21.913Z,2.33
2018-07-05T16:40:01.723Z,2.00
2018-07-05T16:42:41.414Z,2.10
2018-07-05T16:45:21.206Z,2.30
2018-07-05T16:48:01.091Z,2.40
2018-07-05T16:50:40.825Z,2.73
2018-07-05T16:53:20.670Z,2.23
2018-07-05T16:56:00.131Z,2.20
2018-07-05T16:58:39.782Z,2.27
2018-07-05T17:01:19.325Z,1.80
2018-07-05T17:03:59.055Z,2.20
2018-07-05T17:06:38.883Z,2.20
2018-07-05T17:09:18.652Z,2.20
2018-07-05T17:11:58.847Z,2.40
2018-07-05T17:14:38.775Z,2.20
2018-07-05T17:17:18.463Z,2.00
2018-07-05T17:19:58.649Z,3.27
2018-07-05T17:22:38.586Z,3.20
2018-07-05T17:25:18.246Z,3.37
2018-07-05T17:27:57.903Z,3.70
2018-07-05T17:30:37.533Z,4.97
2018-07-05T17:33:17.148Z,3.37
2018-07-05T17:35:56.855Z,3.17
2018-07-05T17:38:36.624Z,3.20
2018-07-05T17:41:16.388Z,2.77
2018-07-05T17:43:56.130Z,2.53
2018-07-05T17:46:35.880Z,2.70
2018-07-05T17:49:15.547Z,2.30
2018-07-05T17:51:55.198Z,2.57
2018-07-05T17:54:34.842Z,2.67
2018-07-05T17:57:14.571Z,2.40
2018-07-05T17:59:54.330Z,2.60
2018-07-05T18:02:34.152Z,2.90
2018-07-05T18:05:13.847Z,2.70
2018-07-05T18:07:53.487Z,2.30
2018-07-05T18:10:33.537Z,2.60
2018-07-05T18:13:13.108Z,2.70
2018-07-05T18:15:52.686Z,2.63
2018-07-05T18:18:26.353Z,3.43
2018-07-05T18:21:05.928Z,2.87
2018-07-05T18:23:45.881Z,3.30
2018-07-05T18:26:25.498Z,3.00
2018-07-05T18:29:05.063Z,2.93
2018-07-05T18:31:44.708Z,3.63
2018-07-05T18:34:25.340Z,2.93
2018-07-05T18:37:04.940Z,2.50
2018-07-05T18:39:44.612Z,2.50
2018-07-05T18:42:24.168Z,2.87
2018-07-05T18:45:03.974Z,3.37
2018-07-05T18:47:43.595Z,3.17
2018-07-05T18:50:17.159Z,2.70
2018-07-05T18:52:56.859Z,2.70
2018-07-05T18:55:36.476Z,2.63
2018-07-05T18:58:16.274Z,3.57
2018-07-05T19:00:56.033Z,2.97
2018-07-05T19:03:35.805Z,2.50
2018-07-05T19:06:15.537Z,2.60
2018-07-05T19:08:55.244Z,3.37
2018-07-05T19:11:34.960Z,3.07
2018-07-05T19:14:14.647Z,3.17
2018-07-05T19:16:54.227Z,2.53
2018-07-05T19:19:33.840Z,3.13
2018-07-05T19:22:13.579Z,3.10
2018-07-05T19:24:53.317Z,2.33
2018-07-05T19:27:33.045Z,2.20
2018-07-05T19:30:12.559Z,1.87
2018-07-05T19:32:52.319Z,2.30
2018-07-05T19:35:32.153Z,2.27
2018-07-05T19:38:11.942Z,2.43
2018-07-05T19:40:51.621Z,2.30
2018-07-05T19:43:31.260Z,1.73
2018-07-05T19:46:11.068Z,1.60
2018-07-05T19:48:50.809Z,2.13
2018-07-05T19:51:30.501Z,1.60
2018-07-05T19:54:10.239Z,1.57
2018-07-05T19:56:49.921Z,2.10
2018-07-05T19:59:30.533Z,1.60
2018-07-05T20:02:11.262Z,1.50
2018-07-05T20:04:50.767Z,2.20
2018-07-05T20:07:30.583Z,2.10
2018-07-05T20:10:10.246Z,2.40
2018-07-05T20:12:49.990Z,2.20
2018-07-05T20:15:29.867Z,2.17
2018-07-05T20:18:10.524Z,2.00
2018-07-05T20:20:50.261Z,2.30
2018-07-05T20:23:29.897Z,1.87
2018-07-05T20:26:09.727Z,1.90
2018-07-05T20:28:49.472Z,1.97
2018-07-05T20:31:32.254Z,2.40
2018-07-05T20:34:12.083Z,2.17
2018-07-05T20:36:51.722Z,2.00
2018-07-05T20:39:31.526Z,2.40
2018-07-05T20:42:11.341Z,2.60
2018-07-05T20:44:51.152Z,2.40
2018-07-05T20:47:30.917Z,2.93
2018-07-05T20:50:10.515Z,2.47
2018-07-05T20:52:50.194Z,3.13
2018-07-05T20:55:29.806Z,2.53
2018-07-05T20:58:09.342Z,2.90
2018-07-05T21:00:49.076Z,2.60
2018-07-05T21:03:28.911Z,3.53
2018-07-05T21:06:08.923Z,3.37
2018-07-05T21:08:48.665Z,2.53
2018-07-05T21:11:28.437Z,2.70
2018-07-05T21:14:08.229Z,3.10
2018-07-05T21:16:48.158Z,2.93
2018-07-05T21:19:27.827Z,2.67
2018-07-05T21:22:07.665Z,2.67
2018-07-05T21:24:47.441Z,2.63
2018-07-05T21:27:27.298Z,2.77
2018-07-05T21:30:07.826Z,3.80
2018-07-05T21:32:47.391Z,3.77
2018-07-05T21:35:27.497Z,4.60
2018-07-05T21:38:07.126Z,4.93
2018-07-05T21:40:46.693Z,7.23
2018-07-05T21:43:26.272Z,5.80
2018-07-05T21:46:06.068Z,4.87
2018-07-05T21:48:45.826Z,5.23
2018-07-05T21:51:25.534Z,4.77
2018-07-05T21:54:05.213Z,5.27
2018-07-05T21:56:44.997Z,8.67
2018-07-05T21:59:24.823Z,21.37
2018-07-05T22:02:04.560Z,8.37
2018-07-05T22:04:44.158Z,6.27
2018-07-05T22:07:23.846Z,3.33
2018-07-05T22:10:03.398Z,3.03
2018-07-05T22:12:42.941Z,5.43
2018-07-05T22:15:22.818Z,3.53
2018-07-05T22:18:08.021Z,2.20
2018-07-05T22:20:53.095Z,3.13
2018-07-05T22:23:38.516Z,2.83
2018-07-05T22:26:23.715Z,5.03
2018-07-05T22:29:08.960Z,2.90
2018-07-05T22:31:54.079Z,2.13
2018-07-05T22:34:33.822Z,2.73
2018-07-05T22:37:13.567Z,2.70
2018-07-05T22:39:53.357Z,2.13
2018-07-05T22:42:32.987Z,2.23
2018-07-05T22:45:12.786Z,2.00
2018-07-05T22:47:52.563Z,2.60
2018-07-05T22:50:26.302Z,2.20
2018-07-05T22:53:05.984Z,1.83
2018-07-05T22:55:45.709Z,4.20
2018-07-05T22:58:25.287Z,3.13
2018-07-05T23:01:04.973Z,2.50
2018-07-05T23:03:44.511Z,2.63
2018-07-05T23:06:24.054Z,2.70
2018-07-05T23:09:03.779Z,2.67
2018-07-05T23:11:43.599Z,2.03
2018-07-05T23:14:23.350Z,2.10
2018-07-05T23:17:03.130Z,2.20
2018-07-05T23:19:43.143Z,2.37
2018-07-05T23:22:23.399Z,2.30
2018-07-05T23:25:03.042Z,3.10
2018-07-05T23:27:42.929Z,2.80
2018-07-05T23:30:22.484Z,2.87
2018-07-05T23:33:01.981Z,2.57
2018-07-05T23:35:41.724Z,2.57
2018-07-05T23:38:21.367Z,2.33
2018-07-05T23:41:01.052Z,2.50
2018-07-05T23:43:40.967Z,3.83
2018-07-05T23:46:20.834Z,2.13
2018-07-05T23:49:00.551Z,3.60
2018-07-05T23:51:40.279Z,3.47
2018-07-05T23:54:19.895Z,3.03
2018-07-05T23:56:59.486Z,2.50
2018-07-05T23:59:39.166Z,3.80
